Time;durP1;ratioP1;P1;durP2;ratioP2;P2;SDS_P1;SDS_P2;PMS_P1;PMS_P2;Temp;Humidity;BMP_temperature;BMP_pressure;BME280_temperature;BME280_humidity;BME280_pressure;Samples;Min_cycle;Max_cycle;Signal;HPM_P1;HPM_P2
2023/07/04 00:00:23;;;;;;;4.37;1.57;;;19.50;73.50;;;;;;5015798;28;20609;-73
2023/07/04 00:02:50;;;;;;;7.67;1.20;;;19.50;73.60;;;;;;5016509;28;20585;-73
2023/07/04 00:05:16;;;;;;;6.57;1.57;;;19.50;73.80;;;;;;5015792;28;21128;-73
2023/07/04 00:07:41;;;;;;;8.03;1.57;;;19.50;74.30;;;;;;5016974;28;20585;-73
2023/07/04 00:10:08;;;;;;;6.83;1.50;;;19.50;74.70;;;;;;5015532;28;20279;-73
2023/07/04 00:12:34;;;;;;;6.87;1.63;;;19.50;74.50;;;;;;4996458;28;20206;-73
2023/07/04 00:14:59;;;;;;;5.20;2.00;;;19.50;74.70;;;;;;5013619;28;21104;-73
2023/07/04 00:17:26;;;;;;;7.43;1.80;;;19.60;75.20;;;;;;4996312;28;20174;-73
2023/07/04 00:19:53;;;;;;;5.90;1.90;;;19.60;75.60;;;;;;5023426;28;20538;-73
2023/07/04 00:22:19;;;;;;;5.80;1.30;;;19.60;75.30;;;;;;5031598;28;20710;-73
2023/07/04 00:24:45;;;;;;;5.13;1.33;;;19.60;75.70;;;;;;5016628;28;20928;-73
2023/07/04 00:27:14;;;;;;;4.50;1.27;;;19.60;75.70;;;;;;5033415;28;20588;-73
2023/07/04 00:29:40;;;;;;;7.07;2.10;;;19.60;75.90;;;;;;5031718;28;20250;-72
2023/07/04 00:32:07;;;;;;;5.00;1.37;;;19.60;76.40;;;;;;5031672;28;20587;-73
2023/07/04 00:34:34;;;;;;;4.40;2.63;;;19.60;76.70;;;;;;5033002;28;20630;-73
2023/07/04 00:37:01;;;;;;;6.30;2.00;;;19.60;76.60;;;;;;5031927;28;20621;-73
2023/07/04 00:39:28;;;;;;;8.37;2.00;;;19.60;77.20;;;;;;5032020;28;20608;-73
2023/07/04 00:41:56;;;;;;;3.53;1.37;;;19.60;77.20;;;;;;5014818;28;20675;-72
2023/07/04 00:44:24;;;;;;;17.53;1.80;;;19.50;77.20;;;;;;5033095;28;20565;-73
2023/07/04 00:47:06;;;;;;;8.77;1.93;;;19.50;77.40;;;;;;5031532;28;20588;-73
2023/07/04 00:49:44;;;;;;;7.33;1.77;;;19.50;77.60;;;;;;5031519;28;20678;-73
2023/07/04 00:52:14;;;;;;;6.63;1.40;;;19.50;78.20;;;;;;5032234;28;21212;-73
2023/07/04 00:54:46;;;;;;;7.93;1.57;;;19.50;77.60;;;;;;5031696;28;20596;-73
2023/07/04 00:57:14;;;;;;;8.17;1.87;;;19.40;78.30;;;;;;5014731;28;20580;-73
2023/07/04 00:59:43;;;;;;;5.37;1.57;;;19.40;78.50;;;;;;5032783;28;20607;-74
2023/07/04 01:02:15;;;;;;;3.23;1.50;;;19.40;78.60;;;;;;5030475;28;20694;-73
2023/07/04 01:04:43;;;;;;;4.37;1.83;;;19.30;78.80;;;;;;5014906;28;21171;-74
2023/07/04 01:07:32;;;;;;;7.50;1.87;;;19.30;78.80;;;;;;5030978;28;20611;-72
2023/07/04 01:10:20;;;;;;;4.60;2.20;;;19.20;79.30;;;;;;5031156;28;20623;-72
2023/07/04 01:12:46;;;;;;;5.87;1.70;;;19.20;79.20;;;;;;5013248;28;20784;-73
2023/07/04 01:15:12;;;;;;;6.60;1.83;;;19.10;79.80;;;;;;5031137;28;21021;-72
2023/07/04 01:17:41;;;;;;;6.23;2.00;;;19.10;80.20;;;;;;5032507;28;20584;-73
2023/07/04 01:20:09;;;;;;;6.80;2.30;;;19.00;80.20;;;;;;5030947;28;20654;-73
2023/07/04 01:22:45;;;;;;;4.63;1.40;;;18.90;80.30;;;;;;5030118;28;20962;-73
2023/07/04 01:25:14;;;;;;;5.63;1.37;;;18.90;81.30;;;;;;5014349;28;21143;-73
2023/07/04 01:27:42;;;;;;;5.30;1.43;;;18.80;80.70;;;;;;5032001;28;20608;-73
2023/07/04 01:30:10;;;;;;;9.73;1.40;;;18.80;81.20;;;;;;5030712;28;21176;-73
2023/07/04 01:32:36;;;;;;;5.17;2.00;;;18.70;81.50;;;;;;5031353;28;20659;-73
2023/07/04 01:35:05;;;;;;;9.17;2.30;;;18.70;82.00;;;;;;5014427;28;20603;-73
2023/07/04 01:37:31;;;;;;;5.60;1.77;;;18.60;82.40;;;;;;5014388;28;20592;-73
2023/07/04 01:39:58;;;;;;;5.73;1.60;;;18.60;83.20;;;;;;5024767;28;21211;-73
2023/07/04 01:42:31;;;;;;;7.10;1.57;;;18.60;83.40;;;;;;5007683;28;20213;-73
2023/07/04 01:45:01;;;;;;;4.17;1.40;;;18.50;83.90;;;;;;5027120;28;20680;-73
2023/07/04 01:47:28;;;;;;;6.27;2.07;;;18.50;84.80;;;;;;5010935;28;21210;-73
2023/07/04 01:49:55;;;;;;;5.83;1.70;;;18.40;84.30;;;;;;4994007;28;20648;-73
2023/07/04 01:52:21;;;;;;;6.60;1.53;;;18.40;85.10;;;;;;5026920;28;20632;-74
2023/07/04 01:54:47;;;;;;;4.50;1.30;;;18.40;85.20;;;;;;4994135;28;20605;-74
2023/07/04 01:57:13;;;;;;;7.43;1.90;;;18.30;85.90;;;;;;5011882;28;20600;-75
2023/07/04 01:59:38;;;;;;;5.43;1.53;;;18.30;86.60;;;;;;5010436;28;20275;-73
2023/07/04 02:02:04;;;;;;;6.30;1.40;;;18.30;87.40;;;;;;5010138;28;20574;-74
2023/07/04 02:04:30;;;;;;;7.23;1.30;;;18.30;87.50;;;;;;5027377;28;20854;-73
2023/07/04 02:06:56;;;;;;;7.37;1.53;;;18.20;87.60;;;;;;5010750;28;20680;-73
2023/07/04 02:13:09;;;;;;;8.77;2.53;;;18.20;89.50;;;;;;5011460;28;20228;-73
2023/07/04 02:15:35;;;;;;;4.83;1.10;;;18.20;88.20;;;;;;5026602;28;20576;-73
2023/07/04 02:18:00;;;;;;;4.60;2.23;;;18.10;88.60;;;;;;5009996;28;20597;-73
2023/07/04 02:20:26;;;;;;;5.90;1.83;;;18.10;88.90;;;;;;5009386;28;20198;-74
2023/07/04 02:22:52;;;;;;;6.00;1.73;;;18.10;89.50;;;;;;5009845;28;20604;-73
2023/07/04 02:25:18;;;;;;;5.33;2.07;;;18.00;89.80;;;;;;5010759;28;20194;-74
2023/07/04 02:27:43;;;;;;;4.57;1.87;;;18.00;90.00;;;;;;5009962;28;20174;-74
2023/07/04 02:30:10;;;;;;;6.53;1.70;;;17.90;90.10;;;;;;5009565;28;20609;-73
2023/07/04 02:32:35;;;;;;;5.30;1.63;;;17.90;90.50;;;;;;5009425;28;20202;-73
2023/07/04 02:35:04;;;;;;;3.73;1.40;;;17.90;90.60;;;;;;5009235;28;20673;-73
2023/07/04 02:37:31;;;;;;;5.10;1.80;;;17.80;90.70;;;;;;4993012;28;20615;-74
2023/07/04 02:39:57;;;;;;;6.40;1.43;;;17.80;90.80;;;;;;5026059;28;20617;-74
2023/07/04 02:42:25;;;;;;;5.83;1.67;;;17.80;91.10;;;;;;4992760;28;20178;-73
2023/07/04 02:44:53;;;;;;;5.20;1.60;;;17.70;91.40;;;;;;4993319;28;20643;-73
2023/07/04 02:47:23;;;;;;;5.07;1.63;;;17.70;91.60;;;;;;4993256;28;21355;-74
2023/07/04 02:49:49;;;;;;;4.17;1.40;;;17.60;91.70;;;;;;5009376;28;20652;-74
2023/07/04 02:52:14;;;;;;;4.10;1.70;;;17.60;91.90;;;;;;5008920;28;20625;-74
2023/07/04 02:54:40;;;;;;;6.77;2.13;;;17.60;92.10;;;;;;5011057;28;20531;-74
2023/07/04 02:57:06;;;;;;;3.37;1.70;;;17.50;92.40;;;;;;5009697;28;20261;-75
2023/07/04 02:59:32;;;;;;;6.60;1.97;;;17.50;92.50;;;;;;5014391;28;20193;-74
2023/07/04 03:01:59;;;;;;;4.03;1.73;;;17.50;92.80;;;;;;5006731;28;20967;-74
2023/07/04 03:04:26;;;;;;;7.73;1.73;;;17.50;93.00;;;;;;5009110;28;20672;-72
2023/07/04 03:06:54;;;;;;;4.90;2.00;;;17.50;93.30;;;;;;4996487;28;21052;-73
2023/07/04 03:09:20;;;;;;;6.00;1.40;;;17.40;93.40;;;;;;5009262;28;20647;-73
2023/07/04 03:11:47;;;;;;;5.90;2.00;;;17.40;93.60;;;;;;5009510;28;20175;-73
2023/07/04 03:14:13;;;;;;;5.77;2.33;;;17.40;94.00;;;;;;4993362;28;20632;-73
2023/07/04 03:16:39;;;;;;;11.83;3.13;;;17.40;94.10;;;;;;4993445;28;20580;-74
2023/07/04 03:19:05;;;;;;;6.30;1.43;;;17.30;94.40;;;;;;4992799;28;20213;-73
2023/07/04 03:21:31;;;;;;;6.10;1.93;;;17.30;94.60;;;;;;4992861;28;20581;-74
2023/07/04 03:23:59;;;;;;;5.13;1.70;;;17.30;94.80;;;;;;5009309;28;20236;-74
2023/07/04 03:26:25;;;;;;;8.27;1.73;;;17.30;95.00;;;;;;5023812;28;21309;-73
2023/07/04 03:28:51;;;;;;;8.40;2.07;;;17.30;95.20;;;;;;5012149;28;20202;-73
2023/07/04 03:31:17;;;;;;;8.03;2.00;;;17.20;95.40;;;;;;5012001;28;20220;-73
2023/07/04 03:33:42;;;;;;;6.00;1.73;;;17.20;95.60;;;;;;5030167;28;21293;-73
2023/07/04 03:36:08;;;;;;;5.03;1.40;;;17.20;95.80;;;;;;5028716;28;20192;-73
2023/07/04 03:38:34;;;;;;;8.00;2.03;;;17.20;96.10;;;;;;5029724;28;20215;-74
2023/07/04 03:41:00;;;;;;;5.13;1.63;;;17.20;96.00;;;;;;5029953;28;20596;-73
2023/07/04 03:43:26;;;;;;;11.87;2.43;;;17.20;96.40;;;;;;5027112;28;20177;-74
2023/07/04 03:45:52;;;;;;;5.70;1.80;;;17.20;96.50;;;;;;4992646;28;20577;-74
2023/07/04 03:48:22;;;;;;;9.10;1.90;;;17.20;96.60;;;;;;5008472;28;20181;-74
2023/07/04 03:50:47;;;;;;;6.40;1.80;;;17.20;97.00;;;;;;5016060;28;21000;-74
2023/07/04 03:53:13;;;;;;;7.80;1.80;;;17.20;97.10;;;;;;5033024;28;20631;-74
2023/07/04 03:55:39;;;;;;;5.90;1.90;;;17.20;97.20;;;;;;5034512;28;20188;-73
2023/07/04 03:58:05;;;;;;;7.97;2.60;;;17.20;97.40;;;;;;5032319;28;20185;-73
2023/07/04 04:00:31;;;;;;;5.43;1.70;;;17.20;97.70;;;;;;5015826;28;21163;-74
2023/07/04 04:03:00;;;;;;;6.00;1.67;;;17.20;97.90;;;;;;5032568;28;20588;-74
2023/07/04 04:05:28;;;;;;;7.40;1.90;;;17.20;97.90;;;;;;5032910;28;20580;-74
2023/07/04 04:07:54;;;;;;;4.20;1.63;;;17.20;98.10;;;;;;5032772;28;20580;-73
2023/07/04 04:10:20;;;;;;;5.60;1.67;;;17.20;98.20;;;;;;5032603;28;20615;-73
2023/07/04 04:12:45;;;;;;;4.43;1.40;;;17.20;98.50;;;;;;5033642;28;20204;-74
2023/07/04 04:15:12;;;;;;;9.57;2.43;;;17.20;98.50;;;;;;5032835;28;20631;-72
2023/07/04 04:17:37;;;;;;;5.60;1.60;;;17.20;98.80;;;;;;5032386;28;20220;-71
2023/07/04 04:20:07;;;;;;;6.07;2.03;;;17.30;98.90;;;;;;5026550;28;21048;-72
2023/07/04 04:22:34;;;;;;;3.27;1.70;;;17.30;99.10;;;;;;5032380;28;20265;-72
2023/07/04 04:24:59;;;;;;;5.27;1.90;;;17.30;99.60;;;;;;5031905;28;20600;-72
2023/07/04 04:27:26;;;;;;;9.03;2.20;;;17.30;99.30;;;;;;5032012;28;20906;-74
2023/07/04 04:29:55;;;;;;;9.67;2.77;;;17.30;99.50;;;;;;5032674;28;20201;-73
2023/07/04 04:32:22;;;;;;;7.23;1.87;;;17.40;99.90;;;;;;5031823;28;20638;-72
2023/07/04 04:34:48;;;;;;;10.17;1.97;;;17.40;99.90;;;;;;5031723;28;20667;-71
2023/07/04 04:37:14;;;;;;;8.77;2.33;;;17.50;99.90;;;;;;5031994;28;20595;-72
2023/07/04 04:39:39;;;;;;;5.70;2.47;;;17.50;99.90;;;;;;5014694;28;20612;-73
2023/07/04 04:42:06;;;;;;;7.43;2.33;;;17.60;99.90;;;;;;5015352;28;20630;-73
2023/07/04 04:44:32;;;;;;;8.83;2.37;;;17.60;99.90;;;;;;5031712;28;20265;-72
2023/07/04 04:46:58;;;;;;;7.43;2.03;;;17.60;99.90;;;;;;5033259;28;20664;-73
2023/07/04 04:49:26;;;;;;;7.30;1.83;;;17.70;99.90;;;;;;5032505;28;20968;-73
2023/07/04 04:51:51;;;;;;;8.20;2.00;;;17.80;99.90;;;;;;5031705;28;20588;-73
2023/07/04 04:54:17;;;;;;;7.50;2.50;;;17.80;99.90;;;;;;5031267;28;20944;-72
2023/07/04 04:56:46;;;;;;;10.47;1.63;;;17.90;99.90;;;;;;5031619;28;20197;-73
2023/07/04 04:59:12;;;;;;;6.17;1.73;;;18.00;99.90;;;;;;5031441;28;21155;-73
2023/07/04 05:01:38;;;;;;;7.63;1.90;;;18.10;99.90;;;;;;5031412;28;20580;-73
2023/07/04 05:04:04;;;;;;;7.67;2.27;;;18.10;99.90;;;;;;5031559;28;20604;-73
2023/07/04 05:06:31;;;;;;;6.30;1.70;;;18.10;99.90;;;;;;5014735;28;20580;-73
2023/07/04 05:08:56;;;;;;;6.17;1.63;;;18.30;99.90;;;;;;5032329;28;20941;-73
2023/07/04 05:11:22;;;;;;;8.43;2.10;;;18.40;99.90;;;;;;5032173;28;20718;-73
2023/07/04 05:13:50;;;;;;;8.50;2.53;;;18.40;99.90;;;;;;5031151;28;20304;-73
2023/07/04 05:16:18;;;;;;;5.97;1.90;;;18.50;99.90;;;;;;5031005;28;21151;-72
2023/07/04 05:18:45;;;;;;;8.87;2.73;;;18.70;99.90;;;;;;5030798;28;20584;-72
2023/07/04 05:21:16;;;;;;;9.67;2.40;;;18.80;99.90;;;;;;5032098;28;20565;-73
2023/07/04 05:23:46;;;;;;;7.80;2.00;;;18.90;99.90;;;;;;5031018;28;20585;-73
2023/07/04 05:26:17;;;;;;;7.07;1.70;;;19.00;99.90;;;;;;5032134;28;20588;-73
2023/07/04 05:28:44;;;;;;;6.50;1.80;;;19.10;99.90;;;;;;5030918;28;20634;-73
2023/07/04 05:31:18;;;;;;;8.53;2.00;;;19.20;99.90;;;;;;5030483;28;20641;-73
2023/07/04 05:33:44;;;;;;;7.13;1.97;;;19.30;99.90;;;;;;5031016;28;20734;-73
2023/07/04 05:36:10;;;;;;;7.47;1.80;;;19.40;99.90;;;;;;5032065;28;20667;-73
2023/07/04 05:38:37;;;;;;;5.83;1.60;;;19.50;99.90;;;;;;5030577;28;20692;-74
2023/07/04 05:41:06;;;;;;;3.00;1.37;;;19.70;99.90;;;;;;5031798;28;20182;-73
2023/07/04 05:43:32;;;;;;;6.53;2.10;;;19.90;99.90;;;;;;5030884;28;20577;-73
2023/07/04 05:45:58;;;;;;;5.87;1.60;;;20.00;99.90;;;;;;5030517;28;20666;-73
2023/07/04 05:48:23;;;;;;;5.20;2.20;;;20.20;99.90;;;;;;5030136;28;20589;-73
2023/07/04 05:51:00;;;;;;;6.70;1.60;;;20.30;99.90;;;;;;5031690;28;20627;-73
2023/07/04 05:53:29;;;;;;;4.53;1.57;;;20.50;99.90;;;;;;5014224;28;20746;-72
2023/07/04 05:56:08;;;;;;;9.03;2.20;;;20.70;99.90;;;;;;5030738;28;20596;-71
2023/07/04 05:58:35;;;;;;;6.37;1.60;;;21.10;99.90;;;;;;5030383;28;20993;-72
2023/07/04 06:01:13;;;;;;;5.87;1.97;;;21.70;99.90;;;;;;5024535;28;20985;-73
2023/07/04 06:03:40;;;;;;;8.00;1.57;;;22.30;99.90;;;;;;5011660;28;20605;-72
2023/07/04 06:06:07;;;;;;;10.17;2.57;;;23.10;99.90;;;;;;5012057;28;20582;-72
2023/07/04 06:08:33;;;;;;;5.00;1.73;;;23.90;99.90;;;;;;5009732;28;21478;-73
2023/07/04 06:11:05;;;;;;;4.73;1.40;;;24.60;99.90;;;;;;5019991;28;20595;-73
2023/07/04 06:13:31;;;;;;;6.97;1.30;;;25.20;99.20;;;;;;5029050;28;20635;-72
2023/07/04 06:15:58;;;;;;;9.30;1.80;;;25.90;99.10;;;;;;5030371;28;20676;-73
2023/07/04 06:18:24;;;;;;;8.63;2.53;;;26.50;98.00;;;;;;5030871;28;20664;-72
2023/07/04 06:20:51;;;;;;;9.20;2.00;;;26.80;96.40;;;;;;5030947;28;20604;-72
2023/07/04 06:23:19;;;;;;;6.50;1.70;;;27.30;96.00;;;;;;5031083;28;20565;-72
2023/07/04 06:25:44;;;;;;;6.50;1.70;;;27.80;95.20;;;;;;5031261;28;20936;-73
2023/07/04 06:28:22;;;;;;;7.10;1.93;;;28.30;94.80;;;;;;5029860;28;20579;-73
2023/07/04 06:30:48;;;;;;;4.37;1.80;;;28.70;93.50;;;;;;5031137;28;20201;-73
2023/07/04 06:33:14;;;;;;;5.87;1.70;;;29.30;93.00;;;;;;5013465;28;20640;-74
2023/07/04 06:35:41;;;;;;;4.73;1.67;;;29.80;91.90;;;;;;5029531;28;20175;-73
2023/07/04 06:38:08;;;;;;;7.93;1.63;;;30.20;90.90;;;;;;5030977;28;20165;-73
2023/07/04 06:40:34;;;;;;;6.47;1.63;;;30.70;90.00;;;;;;5030609;28;20612;-73
2023/07/04 06:43:00;;;;;;;4.70;1.70;;;31.10;87.50;;;;;;5030731;28;20579;-72
2023/07/04 06:45:25;;;;;;;5.17;1.30;;;31.50;85.80;;;;;;5030422;28;20577;-72
2023/07/04 06:47:51;;;;;;;5.53;1.87;;;31.70;82.10;;;;;;5031030;28;20179;-72
2023/07/04 06:50:17;;;;;;;7.77;1.50;;;32.10;79.60;;;;;;5030147;28;20690;-72
2023/07/04 06:52:43;;;;;;;6.50;1.90;;;32.40;78.20;;;;;;5029532;28;20246;-73
2023/07/04 06:55:09;;;;;;;5.77;1.43;;;32.50;76.10;;;;;;5029357;28;20588;-73
2023/07/04 06:57:35;;;;;;;7.07;1.50;;;32.50;73.90;;;;;;5030343;28;20680;-73
2023/07/04 07:00:00;;;;;;;7.60;1.50;;;32.40;71.50;;;;;;5030584;28;21188;-73
2023/07/04 07:02:26;;;;;;;5.80;1.77;;;32.10;68.70;;;;;;5012272;28;20260;-72
2023/07/04 07:04:52;;;;;;;7.57;1.93;;;32.00;69.00;;;;;;5029567;28;21159;-72
2023/07/04 07:07:18;;;;;;;5.97;1.80;;;32.00;68.80;;;;;;5029219;28;20182;-72
2023/07/04 07:09:43;;;;;;;9.93;1.83;;;31.90;68.10;;;;;;5029968;28;20251;-74
2023/07/04 07:12:11;;;;;;;6.70;2.07;;;31.80;67.20;;;;;;5028874;28;20201;-72
2023/07/04 07:14:38;;;;;;;7.83;2.30;;;31.70;66.10;;;;;;5029645;28;20264;-72
2023/07/04 07:17:07;;;;;;;9.40;2.43;;;32.00;67.60;;;;;;5030227;28;20615;-72
2023/07/04 07:19:33;;;;;;;3.47;1.33;;;32.10;66.10;;;;;;5025100;28;20680;-72
2023/07/04 07:22:00;;;;;;;5.10;1.97;;;32.00;64.70;;;;;;5011595;28;21051;-72
2023/07/04 07:24:30;;;;;;;3.60;1.20;;;31.80;63.00;;;;;;5016105;28;20576;-73
2023/07/04 07:26:57;;;;;;;5.90;1.90;;;31.60;61.90;;;;;;5034507;28;21070;-73
2023/07/04 07:29:23;;;;;;;8.67;1.57;;;31.70;62.70;;;;;;5033307;28;21248;-73
2023/07/04 07:31:50;;;;;;;2.93;1.50;;;31.90;63.10;;;;;;5034670;28;20603;-73
2023/07/04 07:34:17;;;;;;;5.60;1.60;;;32.30;63.50;;;;;;5032976;28;20988;-73
2023/07/04 07:36:44;;;;;;;4.23;1.73;;;32.30;61.80;;;;;;5016570;28;20621;-72
2023/07/04 07:39:13;;;;;;;7.83;1.97;;;32.30;61.30;;;;;;5033883;28;21143;-73
2023/07/04 07:41:45;;;;;;;6.03;2.00;;;32.60;61.20;;;;;;5034278;28;20649;-72
2023/07/04 07:44:13;;;;;;;4.40;1.50;;;32.80;59.90;;;;;;5033998;28;20587;-74
2023/07/04 07:46:39;;;;;;;3.77;1.60;;;33.00;59.70;;;;;;5016465;28;20616;-73
2023/07/04 07:49:05;;;;;;;5.50;1.77;;;32.80;57.90;;;;;;5032342;28;21177;-72
2023/07/04 07:51:31;;;;;;;2.77;1.30;;;32.80;58.20;;;;;;5032871;28;20588;-71
2023/07/04 07:53:59;;;;;;;5.33;2.00;;;33.20;58.70;;;;;;5034032;28;20669;-72
2023/07/04 07:56:30;;;;;;;3.60;1.23;;;33.20;57.60;;;;;;5032551;28;20617;-74
2023/07/04 07:58:56;;;;;;;6.83;1.40;;;33.00;56.30;;;;;;5032707;28;20621;-74
2023/07/04 08:01:25;;;;;;;7.23;1.47;;;32.70;56.10;;;;;;5032306;28;20588;-73
2023/07/04 08:03:52;;;;;;;3.60;1.20;;;32.80;56.20;;;;;;5033058;28;20584;-73
2023/07/04 08:06:26;;;;;;;4.57;1.67;;;33.10;56.80;;;;;;5033794;28;20651;-74
2023/07/04 08:08:54;;;;;;;3.90;1.43;;;33.20;55.50;;;;;;5033604;28;20740;-74
2023/07/04 08:11:20;;;;;;;4.23;1.60;;;33.00;55.00;;;;;;5032190;28;20590;-74
2023/07/04 08:13:47;;;;;;;5.87;1.23;;;33.00;55.10;;;;;;5034269;28;20649;-74
2023/07/04 08:16:21;;;;;;;2.60;1.00;;;33.30;55.50;;;;;;5032913;28;20595;-73
2023/07/04 08:18:47;;;;;;;4.00;1.67;;;33.60;55.30;;;;;;5031642;28;20641;-73
2023/07/04 08:21:13;;;;;;;2.80;1.27;;;33.70;54.50;;;;;;5032738;28;20587;-73
2023/07/04 08:23:39;;;;;;;4.70;1.30;;;33.40;53.20;;;;;;5016169;28;20664;-73
2023/07/04 08:26:04;;;;;;;4.53;1.70;;;33.00;52.40;;;;;;5032502;28;20240;-73
2023/07/04 08:28:30;;;;;;;6.03;1.83;;;32.50;51.90;;;;;;5033300;28;20638;-72
2023/07/04 08:31:06;;;;;;;4.63;1.20;;;32.00;51.80;;;;;;5032645;28;20173;-73
2023/07/04 08:33:32;;;;;;;4.27;1.20;;;31.50;51.70;;;;;;5031804;28;20197;-72
2023/07/04 08:36:00;;;;;;;3.33;1.20;;;31.10;52.30;;;;;;5032430;28;20619;-73
2023/07/04 08:38:27;;;;;;;3.63;1.30;;;31.00;52.90;;;;;;5032755;28;21127;-72
2023/07/04 08:40:53;;;;;;;3.23;1.20;;;30.70;52.80;;;;;;5033307;28;20600;-72
2023/07/04 08:43:34;;;;;;;6.13;1.20;;;30.50;53.10;;;;;;4998987;28;20592;-73
2023/07/04 08:46:04;;;;;;;7.17;2.40;;;30.60;53.90;;;;;;5015426;28;20631;-73
2023/07/04 08:48:30;;;;;;;4.57;1.83;;;30.90;54.10;;;;;;5031487;28;20599;-73
2023/07/04 08:50:58;;;;;;;4.70;1.47;;;31.10;53.80;;;;;;5033174;28;21420;-73
2023/07/04 08:53:25;;;;;;;2.67;1.13;;;31.50;53.90;;;;;;5032588;28;20711;-73
2023/07/04 08:56:01;;;;;;;3.73;1.30;;;32.00;54.20;;;;;;5032876;28;20583;-73
2023/07/04 08:58:36;;;;;;;4.70;1.13;;;32.60;53.80;;;;;;5031794;28;20589;-73
2023/07/04 09:01:09;;;;;;;4.60;1.00;;;32.90;52.50;;;;;;5032572;28;20585;-73
2023/07/04 09:04:03;;;;;;;3.43;1.40;;;33.20;52.10;;;;;;5031304;28;20593;-74
2023/07/04 09:06:44;;;;;;;5.87;2.60;;;33.50;51.50;;;;;;5012986;28;21263;-73
2023/07/04 09:09:18;;;;;;;4.37;2.20;;;33.60;50.70;;;;;;5011811;28;21152;-73
2023/07/04 09:11:44;;;;;;;4.83;1.47;;;33.90;50.90;;;;;;5012805;28;20583;-73
2023/07/04 09:14:33;;;;;;;4.27;1.20;;;34.20;50.70;;;;;;5028152;28;20647;-74
2023/07/04 09:17:04;;;;;;;3.90;1.47;;;34.50;49.50;;;;;;5012615;28;21053;-73
2023/07/04 09:19:35;;;;;;;3.63;1.50;;;34.90;49.70;;;;;;5028159;28;20676;-72
2023/07/04 09:22:06;;;;;;;3.13;1.37;;;35.20;48.90;;;;;;5012391;28;20677;-73
2023/07/04 09:24:31;;;;;;;4.43;1.37;;;35.40;47.90;;;;;;5028020;28;20604;-73
2023/07/04 09:26:58;;;;;;;3.10;1.17;;;35.40;47.30;;;;;;5011045;28;20573;-73
2023/07/04 09:29:25;;;;;;;5.13;1.13;;;35.40;47.10;;;;;;5019950;28;20208;-73
2023/07/04 09:31:54;;;;;;;8.23;1.70;;;35.30;46.70;;;;;;5031840;28;20933;-72
2023/07/04 09:34:23;;;;;;;4.00;1.27;;;35.40;46.60;;;;;;5032338;28;20703;-72
2023/07/04 09:36:52;;;;;;;4.67;1.23;;;35.60;46.30;;;;;;5030417;28;20639;-72
2023/07/04 09:39:17;;;;;;;3.03;1.43;;;35.70;46.20;;;;;;5030540;28;21067;-72
2023/07/04 09:41:56;;;;;;;4.10;1.20;;;35.90;45.80;;;;;;5030322;28;20604;-73
2023/07/04 09:44:36;;;;;;;3.77;2.20;;;35.70;44.70;;;;;;5029060;28;20263;-72
2023/07/04 09:47:02;;;;;;;4.80;1.60;;;35.80;45.70;;;;;;5030383;28;21024;-73
2023/07/04 09:49:35;;;;;;;5.20;1.47;;;36.00;45.50;;;;;;5030201;28;20626;-74
2023/07/04 09:52:21;;;;;;;3.23;1.40;;;36.00;44.20;;;;;;5030446;28;20577;-73
2023/07/04 09:55:23;;;;;;;4.50;1.37;;;35.70;43.70;;;;;;5030033;28;20691;-74
2023/07/04 09:57:49;;;;;;;3.50;1.47;;;35.20;43.10;;;;;;5031533;28;20621;-72
2023/07/04 10:00:23;;;;;;;8.33;2.70;;;35.00;43.50;;;;;;5013753;28;20614;-71
2023/07/04 10:02:54;;;;;;;3.33;1.60;;;34.70;42.50;;;;;;5031615;28;20190;-72
2023/07/04 10:05:35;;;;;;;3.90;1.93;;;34.50;43.40;;;;;;5030134;28;20582;-73
2023/07/04 10:08:09;;;;;;;3.50;2.13;;;34.20;42.90;;;;;;5031510;28;20570;-73
2023/07/04 10:10:54;;;;;;;5.57;2.30;;;33.90;42.90;;;;;;5029570;28;20640;-72
2023/07/04 10:13:26;;;;;;;4.07;1.60;;;33.80;43.40;;;;;;5031104;28;20649;-72
2023/07/04 10:15:52;;;;;;;6.27;2.33;;;33.70;43.70;;;;;;5029702;28;20579;-74
2023/07/04 10:18:32;;;;;;;5.10;2.37;;;33.60;43.70;;;;;;5029973;28;20591;-72
2023/07/04 10:21:00;;;;;;;4.43;1.80;;;33.70;44.10;;;;;;5030660;28;20673;-73
2023/07/04 10:23:28;;;;;;;8.83;1.60;;;33.80;44.00;;;;;;5029757;28;20672;-72
2023/07/04 10:25:59;;;;;;;4.10;2.10;;;34.00;44.30;;;;;;5029320;28;20665;-74
2023/07/04 10:28:27;;;;;;;5.63;2.50;;;34.00;43.80;;;;;;5029973;28;20579;-73
2023/07/04 10:31:01;;;;;;;4.40;2.00;;;33.90;43.50;;;;;;5029569;28;20595;-73
2023/07/04 10:33:42;;;;;;;3.90;2.97;;;33.70;43.20;;;;;;5030041;28;20637;-74
2023/07/04 10:36:10;;;;;;;6.90;2.40;;;33.60;43.30;;;;;;5029447;28;20638;-73
2023/07/04 10:38:45;;;;;;;6.70;2.07;;;33.60;43.60;;;;;;5030834;28;20582;-72
2023/07/04 10:41:34;;;;;;;6.87;2.03;;;33.50;43.40;;;;;;5030825;28;20579;-72
2023/07/04 10:44:11;;;;;;;3.80;1.80;;;33.60;44.00;;;;;;4982756;28;20678;-72
2023/07/04 10:46:55;;;;;;;4.70;2.30;;;33.70;44.00;;;;;;5030785;28;20637;-73
2023/07/04 10:49:25;;;;;;;3.27;2.23;;;33.60;43.60;;;;;;5030863;28;20628;-72
2023/07/04 10:52:01;;;;;;;7.63;2.53;;;33.40;43.20;;;;;;5030801;28;20584;-72
2023/07/04 10:54:27;;;;;;;6.20;3.53;;;33.20;43.20;;;;;;5029565;28;20688;-73
2023/07/04 10:57:00;;;;;;;5.13;2.60;;;33.10;43.50;;;;;;5029055;28;20589;-72
2023/07/04 10:59:31;;;;;;;6.20;2.10;;;33.10;44.10;;;;;;5012774;28;20732;-72
2023/07/04 11:02:10;;;;;;;3.77;2.43;;;33.30;44.40;;;;;;5029028;28;20663;-74
2023/07/04 11:04:39;;;;;;;3.90;2.37;;;33.50;44.20;;;;;;5009092;28;20599;-73
2023/07/04 11:07:23;;;;;;;5.37;2.93;;;33.70;44.40;;;;;;5028052;28;20641;-72
2023/07/04 11:09:57;;;;;;;5.57;2.00;;;33.90;43.80;;;;;;5029373;28;20600;-73
2023/07/04 11:12:27;;;;;;;7.90;2.57;;;34.20;44.00;;;;;;5029193;28;20572;-73
2023/07/04 11:15:03;;;;;;;5.00;2.77;;;34.40;43.90;;;;;;5029495;28;20584;-73
2023/07/04 11:17:33;;;;;;;5.77;1.87;;;34.50;43.40;;;;;;5011854;28;21111;-73
2023/07/04 11:20:12;;;;;;;4.53;2.50;;;34.60;43.30;;;;;;5027368;28;20615;-73
2023/07/04 11:22:47;;;;;;;4.43;2.27;;;34.80;42.90;;;;;;5029519;28;20586;-71
2023/07/04 11:25:31;;;;;;;5.30;2.20;;;34.80;43.00;;;;;;5029076;28;20575;-72
2023/07/04 11:28:14;;;;;;;4.37;1.80;;;35.00;42.30;;;;;;5030063;28;20678;-72
2023/07/04 11:30:42;;;;;;;6.20;2.90;;;34.90;41.70;;;;;;5028755;28;20600;-72
2023/07/04 11:33:08;;;;;;;4.13;2.23;;;34.90;41.50;;;;;;5028096;28;20650;-73
2023/07/04 11:35:36;;;;;;;6.93;2.60;;;34.70;41.10;;;;;;5028733;28;20592;-73
2023/07/04 11:38:05;;;;;;;6.40;2.43;;;34.50;40.70;;;;;;5028890;28;20591;-73
2023/07/04 11:41:00;;;;;;;6.77;3.30;;;34.10;40.70;;;;;;5012216;28;20619;-73
2023/07/04 11:43:32;;;;;;;5.70;2.67;;;33.70;40.50;;;;;;5009935;28;20636;-73
2023/07/04 11:46:00;;;;;;;5.60;3.30;;;33.30;40.50;;;;;;5028775;28;20673;-72
2023/07/04 11:48:30;;;;;;;4.93;3.60;;;32.90;40.70;;;;;;5029405;28;20936;-73
2023/07/04 11:51:11;;;;;;;6.50;3.13;;;32.60;41.50;;;;;;5028665;28;20666;-73
2023/07/04 11:53:53;;;;;;;4.13;2.67;;;32.30;41.40;;;;;;5028451;28;20928;-71
2023/07/04 11:56:23;;;;;;;6.77;2.83;;;32.10;41.50;;;;;;5028460;28;20588;-72
2023/07/04 11:59:16;;;;;;;6.87;2.60;;;31.90;41.60;;;;;;5027770;28;20583;-73
2023/07/04 12:02:06;;;;;;;6.17;3.50;;;31.80;41.90;;;;;;5029503;28;20612;-73
2023/07/04 12:04:38;;;;;;;6.43;3.33;;;31.80;42.00;;;;;;5014518;28;20697;-73
2023/07/04 12:07:16;;;;;;;4.60;2.73;;;31.80;42.20;;;;;;5030416;28;21078;-73
2023/07/04 12:09:45;;;;;;;6.13;3.30;;;31.80;42.20;;;;;;5031805;28;20661;-73
2023/07/04 12:12:38;;;;;;;5.73;3.00;;;31.90;42.20;;;;;;5032319;28;21083;-74
2023/07/04 12:15:08;;;;;;;6.03;4.50;;;31.90;41.80;;;;;;5029992;28;20617;-73
2023/07/04 12:17:35;;;;;;;8.23;4.70;;;31.90;42.00;;;;;;5031840;28;20584;-74
2023/07/04 12:20:03;;;;;;;6.50;5.70;;;31.90;41.90;;;;;;5031931;28;20695;-73
2023/07/04 12:22:29;;;;;;;6.43;4.90;;;31.90;41.80;;;;;;4998893;28;20609;-72
2023/07/04 12:25:07;;;;;;;7.97;4.30;;;31.90;41.80;;;;;;5031747;28;20945;-72
2023/07/04 12:27:32;;;;;;;5.80;3.90;;;31.80;42.20;;;;;;5033061;28;20648;-73
2023/07/04 12:29:59;;;;;;;6.00;3.43;;;31.90;42.10;;;;;;5031307;28;20703;-74
2023/07/04 12:32:24;;;;;;;5.23;3.30;;;31.90;41.90;;;;;;5033124;28;20180;-74
2023/07/04 12:34:52;;;;;;;5.00;3.20;;;32.00;42.20;;;;;;5031490;28;20564;-73
2023/07/04 12:37:19;;;;;;;5.77;3.63;;;31.90;41.90;;;;;;5033199;28;20173;-73
2023/07/04 12:39:47;;;;;;;7.13;3.43;;;31.90;41.70;;;;;;5032157;28;20601;-72
2023/07/04 12:42:34;;;;;;;4.37;3.30;;;31.80;41.80;;;;;;5032884;28;20596;-82
2023/07/04 12:45:08;;;;;;;4.87;3.50;;;31.70;41.60;;;;;;5036353;28;20674;-82
2023/07/04 12:47:35;;;;;;;4.07;3.30;;;31.60;41.20;;;;;;5034166;28;20658;-81
2023/07/04 12:50:02;;;;;;;5.20;4.10;;;31.60;41.20;;;;;;5033113;28;20628;-81
2023/07/04 12:52:34;;;;;;;6.67;4.30;;;31.50;40.90;;;;;;5034419;28;20611;-81
2023/07/04 12:55:04;;;;;;;5.40;4.20;;;31.30;40.70;;;;;;5033002;28;20612;-81
2023/07/04 12:57:31;;;;;;;4.80;3.90;;;31.10;40.70;;;;;;5031875;28;20599;-80
2023/07/04 13:00:18;;;;;;;5.70;3.93;;;30.90;40.80;;;;;;5037893;28;20620;-82